ADDS METAR Data INFO
IDs: Format: Raw Decoded Include TAF

Data at: 1732 UTC 21 Sep 2017

KHHF 211715Z AUTO 19018G23KT 10SM CLR 33/17 A2985 RMK AO2 T03280166
KHHF 211655Z AUTO 18015G21KT 10SM CLR 33/17 A2985 RMK AO2 T03250169
KHHF 211635Z AUTO 20014G19KT 10SM CLR 31/18 A2986 RMK AO2 T03080183
KHHF 211615Z AUTO 20017G22KT 10SM CLR 30/18 A2986 RMK AO2 T02960175
KHHF 211555Z AUTO 19017G20KT 10SM CLR 29/18 A2986 RMK AO2 T02870175
KHHF 211535Z AUTO 19013G19KT 10SM CLR 28/17 A2987 RMK AO2 T02780173
KHHF 211515Z AUTO 20014G18KT 10SM CLR 27/17 A2986 RMK AO2 T02680171
KHHF 211455Z AUTO 21011KT 10SM CLR 26/18 A2987 RMK AO2 T02550176
KHHF 211435Z AUTO 22008KT 10SM CLR 24/18 A2986 RMK AO2 T02430178
KHHF 211415Z AUTO 23006KT 10SM CLR 23/18 A2986 RMK AO2 T02260178
KHHF 211355Z AUTO 21005KT 10SM CLR 21/18 A2986 RMK AO2 T02090175
KHHF 211335Z AUTO 24005KT 10SM CLR 18/17 A2985 RMK AO2 T01840165
KHHF 211315Z AUTO 00000KT 10SM CLR 15/14 A2985 RMK AO2 T01470139
KHHF 211255Z AUTO 00000KT 10SM CLR 14/13 A2985 RMK AO2 T01370127
KHHF 211235Z AUTO 00000KT 10SM CLR 15/14 A2984 RMK AO2 T01460135
KHHF 211215Z AUTO 00000KT 10SM CLR 14/13 A2984 RMK AO2 T01420130
KHHF 211155Z AUTO 05004KT 10SM CLR 14/13 A2984 RMK AO2 T01400130 10151 20133
KHHF 211135Z AUTO 00000KT 10SM CLR 14/13 A2984 RMK AO2 T01350125
KHHF 211115Z AUTO 00000KT 10SM CLR 14/13 A2984 RMK AO2 T01420131
KHHF 211055Z AUTO 00000KT 10SM CLR 14/13 A2983 RMK AO2 T01380128
KHHF 211035Z AUTO 00000KT 10SM CLR 14/13 A2983 RMK AO2 T01400130
KHHF 211015Z AUTO 00000KT 10SM CLR 14/13 A2983 RMK AO2 T01350126
KHHF 210955Z AUTO 00000KT 10SM CLR 14/12 A2982 RMK AO2 T01370124
KHHF 210935Z AUTO 00000KT 10SM CLR 14/13 A2982 RMK AO2 T01410129
KHHF 210915Z AUTO 00000KT 10SM CLR 14/13 A2982 RMK AO2 T01400127
KHHF 210855Z AUTO 00000KT 10SM CLR 14/12 A2983 RMK AO2 T01350124
KHHF 210835Z AUTO 00000KT 10SM CLR 14/13 A2984 RMK AO2 T01400128
KHHF 210815Z AUTO 00000KT 10SM CLR 14/12 A2984 RMK AO2 T01350123
KHHF 210755Z AUTO 00000KT 10SM CLR 15/13 A2984 RMK AO2 T01510125
KHHF 210735Z AUTO 00000KT 10SM CLR 14/13 A2986 RMK AO2 T01370125
KHHF 210715Z AUTO 25003KT 10SM CLR 14/12 A2985 RMK AO2 T01370122
KHHF 210655Z AUTO 00000KT 10SM CLR 14/12 A2986 RMK AO2 T01360123
KHHF 210635Z AUTO 00000KT 10SM CLR 14/13 A2987 RMK AO2 T01410126
KHHF 210615Z AUTO 00000KT 10SM CLR 14/13 A2987 RMK AO2 T01410127
KHHF 210555Z AUTO 00000KT 10SM CLR 14/13 A2988 RMK AO2 T01410128 10282 20138 403010138
KHHF 210535Z AUTO 25003KT 10SM CLR 15/13 A2989 RMK AO2 T01460125
KHHF 210515Z AUTO 00000KT 10SM CLR 15/13 A2989 RMK AO2 T01480125
KHHF 210455Z AUTO 00000KT 10SM CLR 15/13 A2989 RMK AO2 T01500130
KHHF 210435Z AUTO 22003KT 10SM CLR 15/13 A2988 RMK AO2 T01450125
KHHF 210415Z AUTO 00000KT 10SM CLR 15/12 A2988 RMK AO2 T01450124
KHHF 210355Z AUTO 00000KT 10SM CLR 15/13 A2988 RMK AO2 T01510126
KHHF 210335Z AUTO 20003KT 10SM CLR 16/13 A2987 RMK AO2 T01560129
KHHF 210315Z AUTO 22003KT 10SM CLR 16/13 A2987 RMK AO2 T01610128
KHHF 210255Z AUTO 00000KT 10SM CLR 17/13 A2986 RMK AO2 T01700130
KHHF 210235Z AUTO 00000KT 10SM CLR 17/13 A2986 RMK AO2 T01660131
KHHF 210215Z AUTO 00000KT 10SM CLR 17/13 A2986 RMK AO2 T01700132
KHHF 210155Z AUTO 17004KT 10SM CLR 20/13 A2985 RMK AO2 T02000134
KHHF 210135Z AUTO 19003KT 10SM CLR 20/14 A2984 RMK AO2 T02000135
KHHF 210115Z AUTO 00000KT 10SM CLR 23/13 A2984 RMK AO2 T02300128
KHHF 210055Z AUTO 00000KT 10SM CLR 24/12 A2984 RMK AO2 T02410121
KHHF 210035Z AUTO 00000KT 10SM CLR 26/13 A2984 RMK AO2 T02580125
KHHF 210015Z AUTO 00000KT 10SM CLR 28/11 A2984 RMK AO2 T02750112
KHHF 202355Z AUTO 00000KT 10SM CLR 28/11 A2984 RMK AO2 T02820112 10301 20253
KHHF 202335Z AUTO 24006KT 10SM CLR 29/10 A2984 RMK AO2 T02900099
KHHF 202315Z AUTO 25005KT 10SM CLR 30/10 A2984 RMK AO2 T02950098
KHHF 202255Z AUTO 23004KT 10SM CLR 30/10 A2984 RMK AO2 T02970099
KHHF 202235Z AUTO 21004KT 10SM CLR 30/10 A2984 RMK AO2 T02960096
KHHF 202215Z AUTO 00000KT 10SM CLR 30/10 A2984 RMK AO2 T03010101
KHHF 202155Z AUTO 00000KT 10SM CLR 30/10 A2984 RMK AO2 T02950096
KHHF 202135Z AUTO 00000KT 10SM CLR 29/09 A2984 RMK AO2 T02900090
KHHF 202115Z AUTO 00000KT 10SM CLR 29/09 A2985 RMK AO2 T02900090
KHHF 202055Z AUTO 00000KT 10SM CLR 29/09 A2985 RMK AO2 T02870092
KHHF 202035Z AUTO 04004KT 7SM CLR 29/10 A2986 RMK AO2 T02870097
KHHF 202015Z AUTO 08004KT 10SM CLR 29/10 A2986 RMK AO2 T02850095
KHHF 201955Z AUTO 10003KT 10SM CLR 28/09 A2987 RMK AO2 T02800094
KHHF 201935Z AUTO 03007KT 7SM CLR 28/10 A2987 RMK AO2 T02770097
KHHF 201915Z AUTO 03006KT 10SM CLR 27/10 A2988 RMK AO2 T02720098
KHHF 201855Z AUTO 05006KT 010V070 10SM CLR 27/10 A2988 RMK AO2 T02670096
KHHF 201835Z AUTO 34007KT 330V030 10SM CLR 26/09 A2988 RMK AO2 T02610094
KHHF 201815Z AUTO 03007KT 340V050 10SM CLR 26/10 A2989 RMK AO2 T02600096
KHHF 201755Z AUTO 02007KT 10SM CLR 25/09 A2989 RMK AO2 T02540093 10254 20155
KHHF 201735Z AUTO 34010KT 10SM CLR 25/09 A2990 RMK AO2 T02450090
KHHF 201715Z AUTO 01006KT 10SM CLR 24/09 A2990 RMK AO2 T02400088
KHHF 201655Z AUTO 02009KT 10SM CLR 23/09 A2990 RMK AO2 T02330087
KHHF 201635Z AUTO 34009G16KT 10SM CLR 23/09 A2990 RMK AO2 T02310087
KHHF 201615Z AUTO 36010G15KT 10SM CLR 22/09 A2990 RMK AO2 T02230086
KHHF 201555Z AUTO 01011G14KT 10SM CLR 22/08 A2990 RMK AO2 T02160083
KHHF 201535Z AUTO 01009G15KT 10SM CLR 21/08 A2990 RMK AO2 T02110081
KHHF 201515Z AUTO 03009KT 10SM CLR 20/08 A2990 RMK AO2 T02020077
KHHF 201455Z AUTO 01008KT 10SM CLR 19/07 A2989 RMK AO2 T01920072
KHHF 201435Z AUTO 36009KT 10SM CLR 18/07 A2989 RMK AO2 T01830068
KHHF 201415Z AUTO 36007KT 10SM CLR 18/07 A2987 RMK AO2 T01750068
KHHF 201355Z AUTO 35008KT 10SM CLR 17/07 A2987 RMK AO2 T01680068
KHHF 201335Z AUTO 34006KT 10SM CLR 16/08 A2986 RMK AO2 T01620075
KHHF 201315Z AUTO 35004KT 10SM CLR 16/08 A2985 RMK AO2 T01590077
KHHF 201255Z AUTO 34006KT 10SM CLR 16/08 A2984 RMK AO2 T01550083
KHHF 201235Z AUTO 34006KT 10SM CLR 16/09 A2983 RMK AO2 T01550091
KHHF 201215Z AUTO 35007KT 10SM CLR 16/11 A2982 RMK AO2 T01630106
KHHF 201155Z AUTO 33007KT 10SM CLR 18/15 A2981 RMK AO2 T01790151 10233 20179
KHHF 201135Z AUTO 32005KT 10SM CLR 19/16 A2980 RMK AO2 T01850155
KHHF 201115Z AUTO 25004KT 10SM CLR 20/16 A2979 RMK AO2 T01970162
KHHF 201055Z AUTO 28003KT 10SM CLR 20/17 A2978 RMK AO2 T01980168
KHHF 201035Z AUTO 23003KT 10SM CLR 20/17 A2976 RMK AO2 T02040171
KHHF 201015Z AUTO 34007KT 10SM CLR 21/17 A2975 RMK AO2 T02120174
KHHF 200955Z AUTO 22003KT 10SM CLR 22/18 A2973 RMK AO2 T02160176
KHHF 200935Z AUTO 24005KT 10SM CLR 22/18 A2972 RMK AO2 T02180176
KHHF 200915Z AUTO 22004KT 10SM CLR 22/18 A2972 RMK AO2 T02190175
KHHF 200855Z AUTO 22006KT 10SM CLR 22/18 A2972 RMK AO2 T02240179
KHHF 200835Z AUTO 22008KT 10SM CLR 23/18 A2973 RMK AO2 T02280181
KHHF 200815Z AUTO 21013G22KT 10SM CLR 23/18 A2973 RMK AO2 T02320182
KHHF 200755Z AUTO 21014G19KT 10SM CLR 23/18 A2973 RMK AO2 T02310184
KHHF 200735Z AUTO 21017G23KT 10SM CLR 23/19 A2972 RMK AO2 T02320185
KHHF 200715Z AUTO 20021G28KT 10SM CLR 23/19 A2972 RMK AO2 T02320185
KHHF 200655Z AUTO 19023G32KT 10SM CLR 23/19 A2971 RMK AO2 T02320187
KHHF 200635Z AUTO 18024G31KT 10SM CLR 23/19 A2971 RMK AO2 T02310188
KHHF 200615Z AUTO 17024G30KT 10SM CLR 23/19 A2970 RMK AO2 T02310188
KHHF 200555Z AUTO 17023G32KT 10SM CLR 23/19 A2970 RMK AO2 T02330187 10333 20233 403700197
KHHF 200535Z AUTO 18024G32KT 10SM CLR 24/19 A2970 RMK AO2 T02400188